sensor_id;sensor_type;location;lat;lon;timestamp;temperature;humidity
12634;DHT22;6382;48.614;8.880;2023-03-14T00:01:37;8.50;99.90
12634;DHT22;6382;48.614;8.880;2023-03-14T00:04:04;8.50;99.90
12634;DHT22;6382;48.614;8.880;2023-03-14T00:06:30;8.50;99.90
12634;DHT22;6382;48.614;8.880;2023-03-14T00:08:57;8.40;99.90
12634;DHT22;6382;48.614;8.880;2023-03-14T00:11:24;8.40;99.90
12634;DHT22;6382;48.614;8.880;2023-03-14T00:13:51;8.50;99.90
12634;DHT22;6382;48.614;8.880;2023-03-14T00:16:18;8.40;99.90
12634;DHT22;6382;48.614;8.880;2023-03-14T00:18:45;8.40;99.90
12634;DHT22;6382;48.614;8.880;2023-03-14T00:21:11;8.40;99.90
12634;DHT22;6382;48.614;8.880;2023-03-14T00:23:39;8.40;99.90
12634;DHT22;6382;48.614;8.880;2023-03-14T00:26:10;8.40;99.90
12634;DHT22;6382;48.614;8.880;2023-03-14T00:28:37;8.40;99.90
12634;DHT22;6382;48.614;8.880;2023-03-14T00:31:07;8.40;99.90
12634;DHT22;6382;48.614;8.880;2023-03-14T00:33:34;8.40;99.90
12634;DHT22;6382;48.614;8.880;2023-03-14T00:36:03;8.40;99.90
12634;DHT22;6382;48.614;8.880;2023-03-14T00:38:30;8.40;99.90
12634;DHT22;6382;48.614;8.880;2023-03-14T00:40:57;10.10;99.90
12634;DHT22;6382;48.614;8.880;2023-03-14T00:43:23;8.30;99.90
12634;DHT22;6382;48.614;8.880;2023-03-14T00:45:50;8.50;99.90
12634;DHT22;6382;48.614;8.880;2023-03-14T00:48:18;8.40;99.90
12634;DHT22;6382;48.614;8.880;2023-03-14T00:50:45;8.40;99.90
12634;DHT22;6382;48.614;8.880;2023-03-14T00:53:12;8.40;99.90
12634;DHT22;6382;48.614;8.880;2023-03-14T00:55:39;8.40;99.90
12634;DHT22;6382;48.614;8.880;2023-03-14T00:58:06;8.40;99.90
12634;DHT22;6382;48.614;8.880;2023-03-14T01:00:33;8.40;99.90
12634;DHT22;6382;48.614;8.880;2023-03-14T01:03:00;8.40;99.90
12634;DHT22;6382;48.614;8.880;2023-03-14T01:05:27;8.70;99.90
12634;DHT22;6382;48.614;8.880;2023-03-14T01:07:53;8.40;99.90
12634;DHT22;6382;48.614;8.880;2023-03-14T01:10:20;8.50;99.90
12634;DHT22;6382;48.614;8.880;2023-03-14T01:12:46;8.50;99.90
12634;DHT22;6382;48.614;8.880;2023-03-14T01:15:13;8.40;99.90
12634;DHT22;6382;48.614;8.880;2023-03-14T01:17:40;8.40;99.90
12634;DHT22;6382;48.614;8.880;2023-03-14T01:20:07;8.40;99.90
12634;DHT22;6382;48.614;8.880;2023-03-14T01:22:38;8.40;99.90
12634;DHT22;6382;48.614;8.880;2023-03-14T01:25:08;8.40;99.90
12634;DHT22;6382;48.614;8.880;2023-03-14T01:27:35;8.40;99.90
12634;DHT22;6382;48.614;8.880;2023-03-14T01:30:03;8.40;99.90
12634;DHT22;6382;48.614;8.880;2023-03-14T01:32:30;8.40;99.90
12634;DHT22;6382;48.614;8.880;2023-03-14T01:34:56;10.60;99.90
12634;DHT22;6382;48.614;8.880;2023-03-14T01:37:23;10.80;99.90
12634;DHT22;6382;48.614;8.880;2023-03-14T01:39:50;8.30;99.90
12634;DHT22;6382;48.614;8.880;2023-03-14T01:42:20;11.10;99.90
12634;DHT22;6382;48.614;8.880;2023-03-14T01:44:50;8.20;99.90
12634;DHT22;6382;48.614;8.880;2023-03-14T01:47:18;8.20;99.90
12634;DHT22;6382;48.614;8.880;2023-03-14T01:49:45;10.60;99.90
12634;DHT22;6382;48.614;8.880;2023-03-14T01:54:43;8.20;99.90
12634;DHT22;6382;48.614;8.880;2023-03-14T01:57:11;8.30;99.90
12634;DHT22;6382;48.614;8.880;2023-03-14T01:59:39;8.30;99.90
12634;DHT22;6382;48.614;8.880;2023-03-14T02:02:06;8.30;99.90
12634;DHT22;6382;48.614;8.880;2023-03-14T02:04:34;10.60;99.90
12634;DHT22;6382;48.614;8.880;2023-03-14T02:07:09;8.30;99.90
12634;DHT22;6382;48.614;8.880;2023-03-14T02:09:39;8.30;99.90
12634;DHT22;6382;48.614;8.880;2023-03-14T02:12:07;8.30;99.90
12634;DHT22;6382;48.614;8.880;2023-03-14T02:14:35;8.30;99.90
12634;DHT22;6382;48.614;8.880;2023-03-14T02:17:03;6.80;99.90
12634;DHT22;6382;48.614;8.880;2023-03-14T02:19:50;10.90;99.90
12634;DHT22;6382;48.614;8.880;2023-03-14T02:22:20;8.20;99.90
12634;DHT22;6382;48.614;8.880;2023-03-14T02:27:26;8.20;99.90
12634;DHT22;6382;48.614;8.880;2023-03-14T02:29:54;8.20;99.90
12634;DHT22;6382;48.614;8.880;2023-03-14T02:32:22;8.30;99.90
12634;DHT22;6382;48.614;8.880;2023-03-14T02:34:51;10.70;99.90
12634;DHT22;6382;48.614;8.880;2023-03-14T02:37:19;8.20;99.90
12634;DHT22;6382;48.614;8.880;2023-03-14T02:39:47;8.20;99.90
12634;DHT22;6382;48.614;8.880;2023-03-14T02:42:16;8.20;99.90
12634;DHT22;6382;48.614;8.880;2023-03-14T02:44:53;10.50;99.90
12634;DHT22;6382;48.614;8.880;2023-03-14T02:47:22;8.10;99.90
12634;DHT22;6382;48.614;8.880;2023-03-14T02:49:50;10.50;99.90
12634;DHT22;6382;48.614;8.880;2023-03-14T02:52:17;8.90;99.90
12634;DHT22;6382;48.614;8.880;2023-03-14T02:54:44;8.00;99.90
12634;DHT22;6382;48.614;8.880;2023-03-14T02:57:10;7.90;99.90
12634;DHT22;6382;48.614;8.880;2023-03-14T02:59:37;7.90;99.90
12634;DHT22;6382;48.614;8.880;2023-03-14T03:02:04;7.80;99.90
12634;DHT22;6382;48.614;8.880;2023-03-14T03:04:30;7.80;99.90
12634;DHT22;6382;48.614;8.880;2023-03-14T03:06:57;7.80;99.90
12634;DHT22;6382;48.614;8.880;2023-03-14T03:09:24;7.70;99.90
12634;DHT22;6382;48.614;8.880;2023-03-14T03:11:50;7.70;99.90
12634;DHT22;6382;48.614;8.880;2023-03-14T03:14:17;7.70;99.90
12634;DHT22;6382;48.614;8.880;2023-03-14T03:16:44;7.60;99.90
12634;DHT22;6382;48.614;8.880;2023-03-14T03:19:10;7.60;99.90
12634;DHT22;6382;48.614;8.880;2023-03-14T03:21:40;7.60;99.90
12634;DHT22;6382;48.614;8.880;2023-03-14T03:24:07;7.50;99.90
12634;DHT22;6382;48.614;8.880;2023-03-14T03:26:34;7.60;99.90
12634;DHT22;6382;48.614;8.880;2023-03-14T03:29:01;7.50;99.90
12634;DHT22;6382;48.614;8.880;2023-03-14T03:31:27;7.60;99.90
12634;DHT22;6382;48.614;8.880;2023-03-14T03:33:54;7.60;99.90
12634;DHT22;6382;48.614;8.880;2023-03-14T03:36:22;7.60;99.90
12634;DHT22;6382;48.614;8.880;2023-03-14T03:38:49;9.50;99.90
12634;DHT22;6382;48.614;8.880;2023-03-14T03:41:16;7.60;99.90
12634;DHT22;6382;48.614;8.880;2023-03-14T03:43:42;7.60;99.90
12634;DHT22;6382;48.614;8.880;2023-03-14T03:46:09;7.60;99.90
12634;DHT22;6382;48.614;8.880;2023-03-14T03:48:36;7.60;99.90
12634;DHT22;6382;48.614;8.880;2023-03-14T03:51:02;7.50;99.90
12634;DHT22;6382;48.614;8.880;2023-03-14T03:53:29;7.50;99.90
12634;DHT22;6382;48.614;8.880;2023-03-14T03:55:59;7.60;99.90
12634;DHT22;6382;48.614;8.880;2023-03-14T03:58:26;7.50;99.90
12634;DHT22;6382;48.614;8.880;2023-03-14T04:00:53;7.50;99.90
12634;DHT22;6382;48.614;8.880;2023-03-14T04:03:20;7.60;99.90
12634;DHT22;6382;48.614;8.880;2023-03-14T04:05:57;7.50;99.90
12634;DHT22;6382;48.614;8.880;2023-03-14T04:08:24;8.80;99.90
12634;DHT22;6382;48.614;8.880;2023-03-14T04:10:53;7.60;99.90
12634;DHT22;6382;48.614;8.880;2023-03-14T04:13:20;7.60;99.90
12634;DHT22;6382;48.614;8.880;2023-03-14T04:15:46;7.60;99.90
12634;DHT22;6382;48.614;8.880;2023-03-14T04:18:13;7.50;99.90
12634;DHT22;6382;48.614;8.880;2023-03-14T04:20:40;7.60;99.90
12634;DHT22;6382;48.614;8.880;2023-03-14T04:23:06;7.60;99.90
12634;DHT22;6382;48.614;8.880;2023-03-14T04:25:33;7.50;99.90
12634;DHT22;6382;48.614;8.880;2023-03-14T04:28:00;7.60;99.90
12634;DHT22;6382;48.614;8.880;2023-03-14T04:30:27;7.50;99.90
12634;DHT22;6382;48.614;8.880;2023-03-14T04:32:53;7.50;99.90
12634;DHT22;6382;48.614;8.880;2023-03-14T04:35:20;7.50;99.90
12634;DHT22;6382;48.614;8.880;2023-03-14T04:37:47;7.50;99.90
12634;DHT22;6382;48.614;8.880;2023-03-14T04:40:15;7.50;99.90
12634;DHT22;6382;48.614;8.880;2023-03-14T04:42:44;7.40;99.90
12634;DHT22;6382;48.614;8.880;2023-03-14T04:45:10;7.50;99.90
12634;DHT22;6382;48.614;8.880;2023-03-14T04:47:37;7.50;99.90
12634;DHT22;6382;48.614;8.880;2023-03-14T04:50:04;7.50;99.90
12634;DHT22;6382;48.614;8.880;2023-03-14T04:52:31;7.50;99.90
12634;DHT22;6382;48.614;8.880;2023-03-14T04:54:57;9.70;99.90
12634;DHT22;6382;48.614;8.880;2023-03-14T04:57:24;7.50;99.90
12634;DHT22;6382;48.614;8.880;2023-03-14T04:59:51;7.50;99.90
12634;DHT22;6382;48.614;8.880;2023-03-14T05:02:18;7.40;99.90
12634;DHT22;6382;48.614;8.880;2023-03-14T05:04:44;7.40;99.90
12634;DHT22;6382;48.614;8.880;2023-03-14T05:07:11;7.40;99.90
12634;DHT22;6382;48.614;8.880;2023-03-14T05:09:40;7.40;99.90
12634;DHT22;6382;48.614;8.880;2023-03-14T05:12:06;7.40;99.90
12634;DHT22;6382;48.614;8.880;2023-03-14T05:14:34;7.30;99.90
12634;DHT22;6382;48.614;8.880;2023-03-14T05:17:01;7.40;99.90
12634;DHT22;6382;48.614;8.880;2023-03-14T05:19:28;7.40;99.90
12634;DHT22;6382;48.614;8.880;2023-03-14T05:21:54;7.40;99.90
12634;DHT22;6382;48.614;8.880;2023-03-14T05:24:21;7.40;99.90
12634;DHT22;6382;48.614;8.880;2023-03-14T05:26:48;7.50;99.90
12634;DHT22;6382;48.614;8.880;2023-03-14T05:29:14;7.50;99.90
12634;DHT22;6382;48.614;8.880;2023-03-14T05:31:41;7.50;99.90
12634;DHT22;6382;48.614;8.880;2023-03-14T05:34:08;9.90;99.90
12634;DHT22;6382;48.614;8.880;2023-03-14T05:36:34;10.60;99.90
12634;DHT22;6382;48.614;8.880;2023-03-14T05:39:01;7.80;99.90
12634;DHT22;6382;48.614;8.880;2023-03-14T05:41:28;7.50;99.90
12634;DHT22;6382;48.614;8.880;2023-03-14T05:43:55;7.50;99.90
12634;DHT22;6382;48.614;8.880;2023-03-14T05:46:22;7.50;99.90
12634;DHT22;6382;48.614;8.880;2023-03-14T05:48:49;7.40;99.90
12634;DHT22;6382;48.614;8.880;2023-03-14T05:51:15;7.40;99.90
12634;DHT22;6382;48.614;8.880;2023-03-14T05:53:42;9.60;99.90
12634;DHT22;6382;48.614;8.880;2023-03-14T05:56:09;7.40;99.90
12634;DHT22;6382;48.614;8.880;2023-03-14T05:58:36;7.40;99.90
12634;DHT22;6382;48.614;8.880;2023-03-14T06:01:03;7.40;99.90
12634;DHT22;6382;48.614;8.880;2023-03-14T06:03:30;7.30;99.90
12634;DHT22;6382;48.614;8.880;2023-03-14T06:05:56;7.50;99.90
12634;DHT22;6382;48.614;8.880;2023-03-14T06:08:23;7.50;99.90
12634;DHT22;6382;48.614;8.880;2023-03-14T06:10:52;8.80;99.90
12634;DHT22;6382;48.614;8.880;2023-03-14T06:13:19;7.50;99.90
12634;DHT22;6382;48.614;8.880;2023-03-14T06:15:46;7.50;99.90
12634;DHT22;6382;48.614;8.880;2023-03-14T06:18:13;9.90;99.90
12634;DHT22;6382;48.614;8.880;2023-03-14T06:20:40;7.40;99.90
12634;DHT22;6382;48.614;8.880;2023-03-14T06:23:07;7.50;99.90
12634;DHT22;6382;48.614;8.880;2023-03-14T06:25:34;7.50;99.90
12634;DHT22;6382;48.614;8.880;2023-03-14T06:28:01;7.50;99.90
12634;DHT22;6382;48.614;8.880;2023-03-14T06:30:28;7.60;99.90
12634;DHT22;6382;48.614;8.880;2023-03-14T06:32:55;7.70;99.90
12634;DHT22;6382;48.614;8.880;2023-03-14T06:35:22;7.60;99.90
12634;DHT22;6382;48.614;8.880;2023-03-14T06:37:49;7.70;99.90
12634;DHT22;6382;48.614;8.880;2023-03-14T06:40:16;7.70;99.90
12634;DHT22;6382;48.614;8.880;2023-03-14T06:42:44;7.70;99.90
12634;DHT22;6382;48.614;8.880;2023-03-14T06:45:11;7.80;99.90
12634;DHT22;6382;48.614;8.880;2023-03-14T06:47:38;7.80;99.90
12634;DHT22;6382;48.614;8.880;2023-03-14T06:50:05;7.60;99.90
12634;DHT22;6382;48.614;8.880;2023-03-14T06:52:35;7.90;99.90
12634;DHT22;6382;48.614;8.880;2023-03-14T06:55:02;9.90;99.90
12634;DHT22;6382;48.614;8.880;2023-03-14T06:57:29;8.00;99.90
12634;DHT22;6382;48.614;8.880;2023-03-14T06:59:56;8.00;99.90
12634;DHT22;6382;48.614;8.880;2023-03-14T07:02:23;8.70;99.90
12634;DHT22;6382;48.614;8.880;2023-03-14T07:05:05;8.00;99.90
12634;DHT22;6382;48.614;8.880;2023-03-14T07:07:32;8.00;99.90
12634;DHT22;6382;48.614;8.880;2023-03-14T07:09:59;8.00;99.90
12634;DHT22;6382;48.614;8.880;2023-03-14T07:12:26;8.00;99.90
12634;DHT22;6382;48.614;8.880;2023-03-14T07:14:52;9.50;99.90
12634;DHT22;6382;48.614;8.880;2023-03-14T07:17:19;8.00;99.90
12634;DHT22;6382;48.614;8.880;2023-03-14T07:19:45;8.00;99.90
12634;DHT22;6382;48.614;8.880;2023-03-14T07:22:13;9.70;99.90
12634;DHT22;6382;48.614;8.880;2023-03-14T07:24:39;9.40;99.90
12634;DHT22;6382;48.614;8.880;2023-03-14T07:27:06;8.10;99.90
12634;DHT22;6382;48.614;8.880;2023-03-14T07:29:36;8.30;99.90
12634;DHT22;6382;48.614;8.880;2023-03-14T07:32:03;9.80;99.90
12634;DHT22;6382;48.614;8.880;2023-03-14T07:34:29;8.20;99.90
12634;DHT22;6382;48.614;8.880;2023-03-14T07:36:56;9.90;99.90
12634;DHT22;6382;48.614;8.880;2023-03-14T07:39:23;8.40;99.90
12634;DHT22;6382;48.614;8.880;2023-03-14T07:41:49;8.40;99.90
12634;DHT22;6382;48.614;8.880;2023-03-14T07:44:16;8.50;99.90
12634;DHT22;6382;48.614;8.880;2023-03-14T07:46:46;10.70;99.90
12634;DHT22;6382;48.614;8.880;2023-03-14T07:49:13;8.80;99.90
12634;DHT22;6382;48.614;8.880;2023-03-14T07:51:39;8.90;99.90
12634;DHT22;6382;48.614;8.880;2023-03-14T07:54:06;11.00;99.90
12634;DHT22;6382;48.614;8.880;2023-03-14T07:56:34;9.90;99.90
12634;DHT22;6382;48.614;8.880;2023-03-14T07:59:00;9.30;99.90
12634;DHT22;6382;48.614;8.880;2023-03-14T08:01:27;9.40;99.90
12634;DHT22;6382;48.614;8.880;2023-03-14T08:03:54;9.60;99.90
12634;DHT22;6382;48.614;8.880;2023-03-14T08:06:21;9.70;99.90
12634;DHT22;6382;48.614;8.880;2023-03-14T08:08:48;10.10;99.90
12634;DHT22;6382;48.614;8.880;2023-03-14T08:11:14;9.90;99.90
12634;DHT22;6382;48.614;8.880;2023-03-14T08:13:41;10.00;99.90
12634;DHT22;6382;48.614;8.880;2023-03-14T08:16:08;12.40;99.90
12634;DHT22;6382;48.614;8.880;2023-03-14T08:18:35;9.80;99.90
12634;DHT22;6382;48.614;8.880;2023-03-14T08:21:02;10.00;99.90
12634;DHT22;6382;48.614;8.880;2023-03-14T08:23:28;10.00;99.90
12634;DHT22;6382;48.614;8.880;2023-03-14T08:25:55;10.00;99.90
12634;DHT22;6382;48.614;8.880;2023-03-14T08:28:22;11.50;99.90
12634;DHT22;6382;48.614;8.880;2023-03-14T08:30:49;9.90;99.90
12634;DHT22;6382;48.614;8.880;2023-03-14T08:33:15;12.20;99.90
12634;DHT22;6382;48.614;8.880;2023-03-14T08:35:42;9.90;99.90
12634;DHT22;6382;48.614;8.880;2023-03-14T08:38:09;9.90;99.90
12634;DHT22;6382;48.614;8.880;2023-03-14T08:40:35;9.80;99.90
12634;DHT22;6382;48.614;8.880;2023-03-14T08:43:02;11.10;99.90
12634;DHT22;6382;48.614;8.880;2023-03-14T08:45:29;9.70;99.90
12634;DHT22;6382;48.614;8.880;2023-03-14T08:47:57;9.60;99.90
12634;DHT22;6382;48.614;8.880;2023-03-14T08:50:23;9.60;99.90
12634;DHT22;6382;48.614;8.880;2023-03-14T08:52:50;9.60;99.90
12634;DHT22;6382;48.614;8.880;2023-03-14T08:55:17;9.50;99.90
12634;DHT22;6382;48.614;8.880;2023-03-14T08:57:45;9.50;99.90
12634;DHT22;6382;48.614;8.880;2023-03-14T09:00:12;9.50;99.90
12634;DHT22;6382;48.614;8.880;2023-03-14T09:02:42;9.40;99.90
12634;DHT22;6382;48.614;8.880;2023-03-14T09:05:10;10.00;99.90
12634;DHT22;6382;48.614;8.880;2023-03-14T09:07:37;9.50;99.90
12634;DHT22;6382;48.614;8.880;2023-03-14T09:10:05;11.00;99.90
12634;DHT22;6382;48.614;8.880;2023-03-14T09:12:32;9.60;99.90
12634;DHT22;6382;48.614;8.880;2023-03-14T09:14:59;9.90;99.90
12634;DHT22;6382;48.614;8.880;2023-03-14T09:17:26;9.60;99.90
12634;DHT22;6382;48.614;8.880;2023-03-14T09:19:53;9.70;99.90
12634;DHT22;6382;48.614;8.880;2023-03-14T09:22:20;9.70;99.90
12634;DHT22;6382;48.614;8.880;2023-03-14T09:24:47;9.80;99.90
12634;DHT22;6382;48.614;8.880;2023-03-14T09:27:13;9.80;99.90
12634;DHT22;6382;48.614;8.880;2023-03-14T09:29:40;11.80;99.90
12634;DHT22;6382;48.614;8.880;2023-03-14T09:32:07;9.90;99.90
12634;DHT22;6382;48.614;8.880;2023-03-14T09:34:38;12.00;99.90
12634;DHT22;6382;48.614;8.880;2023-03-14T09:37:04;9.90;99.90
12634;DHT22;6382;48.614;8.880;2023-03-14T09:39:31;11.40;99.90
12634;DHT22;6382;48.614;8.880;2023-03-14T09:41:58;11.70;99.90
12634;DHT22;6382;48.614;8.880;2023-03-14T09:44:28;10.70;99.90
12634;DHT22;6382;48.614;8.880;2023-03-14T09:46:57;11.90;99.90
12634;DHT22;6382;48.614;8.880;2023-03-14T09:49:36;10.10;99.90
12634;DHT22;6382;48.614;8.880;2023-03-14T09:52:11;10.20;99.90
12634;DHT22;6382;48.614;8.880;2023-03-14T09:54:50;10.30;99.90
12634;DHT22;6382;48.614;8.880;2023-03-14T09:57:19;10.30;99.90
12634;DHT22;6382;48.614;8.880;2023-03-14T09:59:47;12.80;99.90
12634;DHT22;6382;48.614;8.880;2023-03-14T10:02:22;12.90;99.90
12634;DHT22;6382;48.614;8.880;2023-03-14T10:04:50;10.60;99.90
12634;DHT22;6382;48.614;8.880;2023-03-14T10:07:18;12.20;99.90
12634;DHT22;6382;48.614;8.880;2023-03-14T10:09:48;13.10;99.90
12634;DHT22;6382;48.614;8.880;2023-03-14T10:12:16;13.40;99.90
12634;DHT22;6382;48.614;8.880;2023-03-14T10:14:45;12.30;99.90
12634;DHT22;6382;48.614;8.880;2023-03-14T10:17:12;11.80;99.90
12634;DHT22;6382;48.614;8.880;2023-03-14T10:19:56;12.50;99.90
12634;DHT22;6382;48.614;8.880;2023-03-14T10:22:30;11.10;99.90
12634;DHT22;6382;48.614;8.880;2023-03-14T10:25:02;11.30;99.90
12634;DHT22;6382;48.614;8.880;2023-03-14T10:27:30;11.40;99.90
12634;DHT22;6382;48.614;8.880;2023-03-14T10:30:03;12.70;99.90
12634;DHT22;6382;48.614;8.880;2023-03-14T10:32:34;11.50;99.90
12634;DHT22;6382;48.614;8.880;2023-03-14T10:35:06;11.60;99.90
12634;DHT22;6382;48.614;8.880;2023-03-14T10:37:33;11.50;99.90
12634;DHT22;6382;48.614;8.880;2023-03-14T10:40:00;12.80;99.90
12634;DHT22;6382;48.614;8.880;2023-03-14T10:42:33;11.30;99.90
12634;DHT22;6382;48.614;8.880;2023-03-14T10:45:04;11.10;99.90
12634;DHT22;6382;48.614;8.880;2023-03-14T10:47:34;11.00;99.90
12634;DHT22;6382;48.614;8.880;2023-03-14T10:52:47;10.90;99.90
12634;DHT22;6382;48.614;8.880;2023-03-14T10:55:28;10.80;99.90
12634;DHT22;6382;48.614;8.880;2023-03-14T10:58:01;12.70;99.90
12634;DHT22;6382;48.614;8.880;2023-03-14T11:00:27;13.20;99.90
12634;DHT22;6382;48.614;8.880;2023-03-14T11:03:12;10.70;99.90
12634;DHT22;6382;48.614;8.880;2023-03-14T11:05:42;10.80;99.90
12634;DHT22;6382;48.614;8.880;2023-03-14T11:08:12;12.00;99.90
12634;DHT22;6382;48.614;8.880;2023-03-14T11:10:42;13.10;99.90
12634;DHT22;6382;48.614;8.880;2023-03-14T11:18:26;10.60;99.90
12634;DHT22;6382;48.614;8.880;2023-03-14T11:26:24;10.20;99.90
12634;DHT22;6382;48.614;8.880;2023-03-14T11:28:56;10.20;99.90
12634;DHT22;6382;48.614;8.880;2023-03-14T11:31:27;10.20;99.90
12634;DHT22;6382;48.614;8.880;2023-03-14T11:34:02;10.20;99.90
12634;DHT22;6382;48.614;8.880;2023-03-14T11:36:53;10.20;99.90
12634;DHT22;6382;48.614;8.880;2023-03-14T11:47:40;10.20;99.90
12634;DHT22;6382;48.614;8.880;2023-03-14T11:50:24;10.10;99.90
12634;DHT22;6382;48.614;8.880;2023-03-14T11:52:54;10.10;99.90
12634;DHT22;6382;48.614;8.880;2023-03-14T11:55:24;11.60;99.90
12634;DHT22;6382;48.614;8.880;2023-03-14T11:57:53;12.00;99.90
12634;DHT22;6382;48.614;8.880;2023-03-14T12:00:23;11.30;99.90
12634;DHT22;6382;48.614;8.880;2023-03-14T12:10:28;10.10;99.90
12634;DHT22;6382;48.614;8.880;2023-03-14T12:12:58;12.10;99.90
12634;DHT22;6382;48.614;8.880;2023-03-14T12:15:25;10.50;99.90
12634;DHT22;6382;48.614;8.880;2023-03-14T12:17:53;12.30;99.90
12634;DHT22;6382;48.614;8.880;2023-03-14T12:20:21;10.30;99.90
12634;DHT22;6382;48.614;8.880;2023-03-14T12:22:52;10.10;99.90
12634;DHT22;6382;48.614;8.880;2023-03-14T12:25:20;12.30;99.90
12634;DHT22;6382;48.614;8.880;2023-03-14T12:38:04;9.60;99.90
12634;DHT22;6382;48.614;8.880;2023-03-14T12:40:32;9.60;99.90
12634;DHT22;6382;48.614;8.880;2023-03-14T12:43:00;11.60;99.90
12634;DHT22;6382;48.614;8.880;2023-03-14T12:45:30;9.50;99.90
12634;DHT22;6382;48.614;8.880;2023-03-14T12:48:19;9.30;99.90
12634;DHT22;6382;48.614;8.880;2023-03-14T12:50:55;9.30;99.90
12634;DHT22;6382;48.614;8.880;2023-03-14T12:56:15;9.10;99.90
12634;DHT22;6382;48.614;8.880;2023-03-14T12:58:58;9.00;99.90
12634;DHT22;6382;48.614;8.880;2023-03-14T13:01:28;9.10;99.90
12634;DHT22;6382;48.614;8.880;2023-03-14T13:03:56;9.30;99.90
12634;DHT22;6382;48.614;8.880;2023-03-14T13:11:50;9.40;99.90
12634;DHT22;6382;48.614;8.880;2023-03-14T13:14:17;9.30;99.90
12634;DHT22;6382;48.614;8.880;2023-03-14T13:16:46;9.20;99.90
12634;DHT22;6382;48.614;8.880;2023-03-14T13:19:20;9.10;99.90
12634;DHT22;6382;48.614;8.880;2023-03-14T13:21:48;9.00;99.90
12634;DHT22;6382;48.614;8.880;2023-03-14T13:24:25;9.00;99.90
12634;DHT22;6382;48.614;8.880;2023-03-14T13:26:53;8.80;99.90
12634;DHT22;6382;48.614;8.880;2023-03-14T13:29:24;10.80;99.90
12634;DHT22;6382;48.614;8.880;2023-03-14T13:31:55;8.50;99.90
12634;DHT22;6382;48.614;8.880;2023-03-14T13:34:26;8.50;99.90
12634;DHT22;6382;48.614;8.880;2023-03-14T13:36:54;11.30;99.90
12634;DHT22;6382;48.614;8.880;2023-03-14T13:39:22;8.40;99.90
12634;DHT22;6382;48.614;8.880;2023-03-14T13:41:52;8.20;99.90
12634;DHT22;6382;48.614;8.880;2023-03-14T13:46:49;8.20;99.90
12634;DHT22;6382;48.614;8.880;2023-03-14T13:49:22;8.10;99.90
12634;DHT22;6382;48.614;8.880;2023-03-14T13:51:50;8.10;99.90
12634;DHT22;6382;48.614;8.880;2023-03-14T13:54:18;8.10;99.90
12634;DHT22;6382;48.614;8.880;2023-03-14T13:56:45;9.70;99.90
12634;DHT22;6382;48.614;8.880;2023-03-14T13:59:22;8.30;99.90
12634;DHT22;6382;48.614;8.880;2023-03-14T14:01:49;8.20;99.90
12634;DHT22;6382;48.614;8.880;2023-03-14T14:04:18;8.30;99.90
12634;DHT22;6382;48.614;8.880;2023-03-14T14:06:46;8.30;99.90
12634;DHT22;6382;48.614;8.880;2023-03-14T14:09:16;8.20;99.90
12634;DHT22;6382;48.614;8.880;2023-03-14T14:11:54;8.20;99.90
12634;DHT22;6382;48.614;8.880;2023-03-14T14:14:42;8.20;99.90
12634;DHT22;6382;48.614;8.880;2023-03-14T14:17:11;8.30;99.90
12634;DHT22;6382;48.614;8.880;2023-03-14T14:19:39;8.20;99.90
12634;DHT22;6382;48.614;8.880;2023-03-14T14:22:08;8.30;99.90
12634;DHT22;6382;48.614;8.880;2023-03-14T14:24:35;11.00;99.90
12634;DHT22;6382;48.614;8.880;2023-03-14T14:27:19;9.10;99.90
12634;DHT22;6382;48.614;8.880;2023-03-14T14:29:57;8.20;99.90
12634;DHT22;6382;48.614;8.880;2023-03-14T14:32:24;8.20;99.90
12634;DHT22;6382;48.614;8.880;2023-03-14T14:35:00;8.30;99.90
12634;DHT22;6382;48.614;8.880;2023-03-14T14:37:43;8.30;99.90
12634;DHT22;6382;48.614;8.880;2023-03-14T14:40:13;8.30;99.90
12634;DHT22;6382;48.614;8.880;2023-03-14T14:42:42;8.30;99.90
12634;DHT22;6382;48.614;8.880;2023-03-14T14:45:19;8.40;99.90
12634;DHT22;6382;48.614;8.880;2023-03-14T14:47:50;8.40;99.90
12634;DHT22;6382;48.614;8.880;2023-03-14T14:52:56;8.40;99.90
12634;DHT22;6382;48.614;8.880;2023-03-14T14:55:28;8.50;99.90
12634;DHT22;6382;48.614;8.880;2023-03-14T14:57:55;8.60;99.90
12634;DHT22;6382;48.614;8.880;2023-03-14T15:00:24;8.60;99.90
12634;DHT22;6382;48.614;8.880;2023-03-14T15:03:00;8.60;99.90
12634;DHT22;6382;48.614;8.880;2023-03-14T15:05:27;8.70;99.90
12634;DHT22;6382;48.614;8.880;2023-03-14T15:07:56;8.70;99.90
12634;DHT22;6382;48.614;8.880;2023-03-14T15:10:24;8.60;99.90
12634;DHT22;6382;48.614;8.880;2023-03-14T15:12:51;10.70;99.90
12634;DHT22;6382;48.614;8.880;2023-03-14T15:15:18;8.50;99.90
12634;DHT22;6382;48.614;8.880;2023-03-14T15:17:44;8.40;99.90
12634;DHT22;6382;48.614;8.880;2023-03-14T15:20:12;8.30;99.90
12634;DHT22;6382;48.614;8.880;2023-03-14T15:22:39;8.20;99.90
12634;DHT22;6382;48.614;8.880;2023-03-14T15:25:07;8.20;99.90
12634;DHT22;6382;48.614;8.880;2023-03-14T15:27:44;8.00;99.90
12634;DHT22;6382;48.614;8.880;2023-03-14T15:30:14;8.30;99.90
12634;DHT22;6382;48.614;8.880;2023-03-14T15:32:41;7.90;99.90
12634;DHT22;6382;48.614;8.880;2023-03-14T15:35:08;7.70;99.90
12634;DHT22;6382;48.614;8.880;2023-03-14T15:37:34;7.90;99.90
12634;DHT22;6382;48.614;8.880;2023-03-14T15:40:02;7.90;99.90
12634;DHT22;6382;48.614;8.880;2023-03-14T15:42:31;10.10;99.90
12634;DHT22;6382;48.614;8.880;2023-03-14T15:44:59;7.90;99.90
12634;DHT22;6382;48.614;8.880;2023-03-14T15:47:26;8.00;99.90
12634;DHT22;6382;48.614;8.880;2023-03-14T15:49:54;10.00;99.90
12634;DHT22;6382;48.614;8.880;2023-03-14T15:52:23;7.90;99.90
12634;DHT22;6382;48.614;8.880;2023-03-14T15:54:50;7.80;99.90
12634;DHT22;6382;48.614;8.880;2023-03-14T15:57:17;10.70;99.90
12634;DHT22;6382;48.614;8.880;2023-03-14T15:59:43;10.70;99.90
12634;DHT22;6382;48.614;8.880;2023-03-14T16:02:10;7.80;99.90
12634;DHT22;6382;48.614;8.880;2023-03-14T16:04:37;8.50;99.90
12634;DHT22;6382;48.614;8.880;2023-03-14T16:07:04;8.00;99.90
12634;DHT22;6382;48.614;8.880;2023-03-14T16:09:30;7.70;99.90
12634;DHT22;6382;48.614;8.880;2023-03-14T16:11:57;7.70;99.90
12634;DHT22;6382;48.614;8.880;2023-03-14T16:14:24;7.70;99.90
12634;DHT22;6382;48.614;8.880;2023-03-14T16:16:51;7.60;99.90
12634;DHT22;6382;48.614;8.880;2023-03-14T16:19:18;7.60;99.90
12634;DHT22;6382;48.614;8.880;2023-03-14T16:21:45;7.50;99.90
12634;DHT22;6382;48.614;8.880;2023-03-14T16:24:12;10.40;99.90
12634;DHT22;6382;48.614;8.880;2023-03-14T16:26:38;7.40;99.90
12634;DHT22;6382;48.614;8.880;2023-03-14T16:29:07;7.30;99.90
12634;DHT22;6382;48.614;8.880;2023-03-14T16:31:34;7.40;99.90
12634;DHT22;6382;48.614;8.880;2023-03-14T16:34:08;7.30;99.90
12634;DHT22;6382;48.614;8.880;2023-03-14T16:36:35;7.30;99.90
12634;DHT22;6382;48.614;8.880;2023-03-14T16:39:02;7.30;99.90
12634;DHT22;6382;48.614;8.880;2023-03-14T16:41:28;8.60;99.90
12634;DHT22;6382;48.614;8.880;2023-03-14T16:44:00;7.20;99.90
12634;DHT22;6382;48.614;8.880;2023-03-14T16:46:27;7.10;99.90
12634;DHT22;6382;48.614;8.880;2023-03-14T16:48:56;7.10;99.90
12634;DHT22;6382;48.614;8.880;2023-03-14T16:51:23;6.90;99.90
12634;DHT22;6382;48.614;8.880;2023-03-14T16:53:49;6.80;99.90
12634;DHT22;6382;48.614;8.880;2023-03-14T16:56:16;6.60;99.90
12634;DHT22;6382;48.614;8.880;2023-03-14T16:58:43;6.50;99.90
12634;DHT22;6382;48.614;8.880;2023-03-14T17:01:11;6.40;99.90
12634;DHT22;6382;48.614;8.880;2023-03-14T17:03:39;6.30;99.90